sensor_id;sensor_type;location;lat;lon;timestamp;P1;durP1;ratioP1;P2;durP2;ratioP2
6117;SDS011;3089;48.202;11.510;2022-11-15T00:01:08;13.53;;;6.13;;
6117;SDS011;3089;48.202;11.510;2022-11-15T00:03:40;13.83;;;5.80;;
6117;SDS011;3089;48.202;11.510;2022-11-15T00:06:08;13.20;;;5.80;;
6117;SDS011;3089;48.202;11.510;2022-11-15T00:08:39;12.50;;;6.00;;
6117;SDS011;3089;48.202;11.510;2022-11-15T00:11:09;15.17;;;5.93;;
6117;SDS011;3089;48.202;11.510;2022-11-15T00:13:38;13.00;;;6.47;;
6117;SDS011;3089;48.202;11.510;2022-11-15T00:16:08;10.00;;;4.80;;
6117;SDS011;3089;48.202;11.510;2022-11-15T00:18:37;14.00;;;6.40;;
6117;SDS011;3089;48.202;11.510;2022-11-15T00:21:06;11.17;;;5.10;;
6117;SDS011;3089;48.202;11.510;2022-11-15T00:23:37;9.60;;;5.00;;
6117;SDS011;3089;48.202;11.510;2022-11-15T00:26:05;13.83;;;5.70;;
6117;SDS011;3089;48.202;11.510;2022-11-15T00:28:34;9.07;;;5.17;;
6117;SDS011;3089;48.202;11.510;2022-11-15T00:31:03;10.20;;;5.43;;
6117;SDS011;3089;48.202;11.510;2022-11-15T00:33:32;10.03;;;4.60;;
6117;SDS011;3089;48.202;11.510;2022-11-15T00:36:01;10.67;;;4.37;;
6117;SDS011;3089;48.202;11.510;2022-11-15T00:38:30;9.40;;;4.23;;
6117;SDS011;3089;48.202;11.510;2022-11-15T00:40:59;7.90;;;4.33;;
6117;SDS011;3089;48.202;11.510;2022-11-15T00:43:35;7.80;;;3.97;;
6117;SDS011;3089;48.202;11.510;2022-11-15T00:46:05;9.67;;;3.37;;
6117;SDS011;3089;48.202;11.510;2022-11-15T00:48:35;7.17;;;3.40;;
6117;SDS011;3089;48.202;11.510;2022-11-15T00:51:03;10.07;;;4.00;;
6117;SDS011;3089;48.202;11.510;2022-11-15T00:53:30;9.37;;;4.20;;
6117;SDS011;3089;48.202;11.510;2022-11-15T00:56:01;7.80;;;3.70;;
6117;SDS011;3089;48.202;11.510;2022-11-15T00:58:30;8.00;;;4.00;;
6117;SDS011;3089;48.202;11.510;2022-11-15T01:01:06;9.13;;;3.40;;
6117;SDS011;3089;48.202;11.510;2022-11-15T01:03:35;10.40;;;4.00;;
6117;SDS011;3089;48.202;11.510;2022-11-15T01:06:03;7.60;;;3.63;;
6117;SDS011;3089;48.202;11.510;2022-11-15T01:08:32;6.50;;;3.17;;
6117;SDS011;3089;48.202;11.510;2022-11-15T01:11:00;6.90;;;3.30;;
6117;SDS011;3089;48.202;11.510;2022-11-15T01:13:30;6.57;;;3.20;;
6117;SDS011;3089;48.202;11.510;2022-11-15T01:15:59;6.03;;;2.97;;
6117;SDS011;3089;48.202;11.510;2022-11-15T01:18:33;6.77;;;3.67;;
6117;SDS011;3089;48.202;11.510;2022-11-15T01:21:04;6.07;;;3.50;;
6117;SDS011;3089;48.202;11.510;2022-11-15T01:23:33;7.77;;;4.00;;
6117;SDS011;3089;48.202;11.510;2022-11-15T01:26:01;7.93;;;3.43;;
6117;SDS011;3089;48.202;11.510;2022-11-15T01:28:30;6.80;;;3.37;;
6117;SDS011;3089;48.202;11.510;2022-11-15T01:30:58;8.63;;;3.10;;
6117;SDS011;3089;48.202;11.510;2022-11-15T01:33:27;6.67;;;2.90;;
6117;SDS011;3089;48.202;11.510;2022-11-15T01:35:57;11.20;;;3.70;;
6117;SDS011;3089;48.202;11.510;2022-11-15T01:38:25;8.60;;;2.93;;
6117;SDS011;3089;48.202;11.510;2022-11-15T01:40:53;6.03;;;3.17;;
6117;SDS011;3089;48.202;11.510;2022-11-15T01:43:22;5.40;;;2.67;;
6117;SDS011;3089;48.202;11.510;2022-11-15T01:45:52;6.33;;;2.70;;
6117;SDS011;3089;48.202;11.510;2022-11-15T01:48:24;6.63;;;3.10;;
6117;SDS011;3089;48.202;11.510;2022-11-15T01:50:57;7.27;;;2.70;;
6117;SDS011;3089;48.202;11.510;2022-11-15T01:53:26;5.87;;;2.87;;
6117;SDS011;3089;48.202;11.510;2022-11-15T01:55:56;7.80;;;3.67;;
6117;SDS011;3089;48.202;11.510;2022-11-15T01:58:24;12.73;;;3.47;;
6117;SDS011;3089;48.202;11.510;2022-11-15T02:00:52;8.77;;;2.67;;
6117;SDS011;3089;48.202;11.510;2022-11-15T02:03:20;7.17;;;3.13;;
6117;SDS011;3089;48.202;11.510;2022-11-15T02:05:53;6.40;;;3.27;;
6117;SDS011;3089;48.202;11.510;2022-11-15T02:08:22;7.30;;;3.27;;
6117;SDS011;3089;48.202;11.510;2022-11-15T02:10:50;6.27;;;2.60;;
6117;SDS011;3089;48.202;11.510;2022-11-15T02:13:18;9.13;;;3.03;;
6117;SDS011;3089;48.202;11.510;2022-11-15T02:15:48;5.90;;;3.00;;
6117;SDS011;3089;48.202;11.510;2022-11-15T02:18:28;5.53;;;2.90;;
6117;SDS011;3089;48.202;11.510;2022-11-15T02:21:07;13.03;;;3.47;;
6117;SDS011;3089;48.202;11.510;2022-11-15T02:30:21;9.13;;;3.93;;
6117;SDS011;3089;48.202;11.510;2022-11-15T02:32:52;6.27;;;3.27;;
6117;SDS011;3089;48.202;11.510;2022-11-15T02:35:27;6.80;;;3.30;;
6117;SDS011;3089;48.202;11.510;2022-11-15T02:38:03;7.30;;;3.50;;
6117;SDS011;3089;48.202;11.510;2022-11-15T02:40:38;6.60;;;3.17;;
6117;SDS011;3089;48.202;11.510;2022-11-15T02:43:12;5.90;;;2.90;;
6117;SDS011;3089;48.202;11.510;2022-11-15T02:46:06;5.43;;;3.00;;
6117;SDS011;3089;48.202;11.510;2022-11-15T02:48:40;7.23;;;3.20;;
6117;SDS011;3089;48.202;11.510;2022-11-15T02:51:10;6.00;;;2.90;;
6117;SDS011;3089;48.202;11.510;2022-11-15T02:53:42;5.47;;;2.83;;
6117;SDS011;3089;48.202;11.510;2022-11-15T02:56:10;5.53;;;2.67;;
6117;SDS011;3089;48.202;11.510;2022-11-15T02:58:52;7.00;;;3.27;;
6117;SDS011;3089;48.202;11.510;2022-11-15T03:01:38;7.87;;;3.33;;
6117;SDS011;3089;48.202;11.510;2022-11-15T03:04:18;8.00;;;3.33;;
6117;SDS011;3089;48.202;11.510;2022-11-15T03:06:57;6.87;;;2.90;;
6117;SDS011;3089;48.202;11.510;2022-11-15T03:09:31;7.23;;;2.73;;
6117;SDS011;3089;48.202;11.510;2022-11-15T03:12:03;10.90;;;3.17;;
6117;SDS011;3089;48.202;11.510;2022-11-15T03:14:39;6.37;;;3.60;;
6117;SDS011;3089;48.202;11.510;2022-11-15T03:17:15;7.33;;;2.97;;
6117;SDS011;3089;48.202;11.510;2022-11-15T03:19:51;7.30;;;3.00;;
6117;SDS011;3089;48.202;11.510;2022-11-15T03:22:23;8.23;;;2.60;;
6117;SDS011;3089;48.202;11.510;2022-11-15T03:24:54;5.23;;;2.50;;
6117;SDS011;3089;48.202;11.510;2022-11-15T03:27:26;7.83;;;2.80;;
6117;SDS011;3089;48.202;11.510;2022-11-15T03:30:00;4.73;;;2.60;;
6117;SDS011;3089;48.202;11.510;2022-11-15T03:32:33;7.10;;;3.40;;
6117;SDS011;3089;48.202;11.510;2022-11-15T03:35:05;6.00;;;3.20;;
6117;SDS011;3089;48.202;11.510;2022-11-15T03:37:37;4.73;;;2.50;;
6117;SDS011;3089;48.202;11.510;2022-11-15T03:40:11;6.87;;;3.00;;
6117;SDS011;3089;48.202;11.510;2022-11-15T03:42:42;6.40;;;2.90;;
6117;SDS011;3089;48.202;11.510;2022-11-15T03:45:16;6.87;;;2.90;;
6117;SDS011;3089;48.202;11.510;2022-11-15T03:47:51;6.90;;;3.03;;
6117;SDS011;3089;48.202;11.510;2022-11-15T03:50:22;4.77;;;2.80;;
6117;SDS011;3089;48.202;11.510;2022-11-15T03:52:52;6.00;;;2.80;;
6117;SDS011;3089;48.202;11.510;2022-11-15T03:55:22;6.17;;;2.43;;
6117;SDS011;3089;48.202;11.510;2022-11-15T03:57:51;9.60;;;3.17;;
6117;SDS011;3089;48.202;11.510;2022-11-15T04:00:21;6.33;;;3.20;;
6117;SDS011;3089;48.202;11.510;2022-11-15T04:02:51;6.50;;;2.70;;
6117;SDS011;3089;48.202;11.510;2022-11-15T04:05:18;5.37;;;2.90;;
6117;SDS011;3089;48.202;11.510;2022-11-15T04:07:46;5.80;;;2.73;;
6117;SDS011;3089;48.202;11.510;2022-11-15T04:10:15;6.43;;;3.37;;
6117;SDS011;3089;48.202;11.510;2022-11-15T04:12:43;6.07;;;2.90;;
6117;SDS011;3089;48.202;11.510;2022-11-15T04:15:14;6.53;;;3.37;;
6117;SDS011;3089;48.202;11.510;2022-11-15T04:17:44;6.60;;;2.60;;
6117;SDS011;3089;48.202;11.510;2022-11-15T04:20:15;13.90;;;2.57;;
6117;SDS011;3089;48.202;11.510;2022-11-15T04:23:02;5.80;;;2.57;;
6117;SDS011;3089;48.202;11.510;2022-11-15T04:25:51;6.30;;;2.70;;
6117;SDS011;3089;48.202;11.510;2022-11-15T04:28:21;7.67;;;3.00;;
6117;SDS011;3089;48.202;11.510;2022-11-15T04:30:49;9.23;;;3.33;;
6117;SDS011;3089;48.202;11.510;2022-11-15T04:33:17;6.03;;;2.90;;
6117;SDS011;3089;48.202;11.510;2022-11-15T04:35:46;4.37;;;2.47;;
6117;SDS011;3089;48.202;11.510;2022-11-15T04:38:34;7.70;;;2.30;;
6117;SDS011;3089;48.202;11.510;2022-11-15T04:41:01;5.70;;;2.63;;
6117;SDS011;3089;48.202;11.510;2022-11-15T04:43:30;4.80;;;2.77;;
6117;SDS011;3089;48.202;11.510;2022-11-15T04:45:58;6.13;;;2.83;;
6117;SDS011;3089;48.202;11.510;2022-11-15T04:48:26;8.00;;;3.83;;
6117;SDS011;3089;48.202;11.510;2022-11-15T04:50:55;6.40;;;3.10;;
6117;SDS011;3089;48.202;11.510;2022-11-15T04:53:23;8.90;;;2.93;;
6117;SDS011;3089;48.202;11.510;2022-11-15T04:55:51;6.10;;;2.70;;
6117;SDS011;3089;48.202;11.510;2022-11-15T04:58:19;5.67;;;2.87;;
6117;SDS011;3089;48.202;11.510;2022-11-15T05:00:47;7.33;;;2.90;;
6117;SDS011;3089;48.202;11.510;2022-11-15T05:03:15;5.07;;;2.57;;
6117;SDS011;3089;48.202;11.510;2022-11-15T05:06:02;4.67;;;2.10;;
6117;SDS011;3089;48.202;11.510;2022-11-15T05:08:30;6.37;;;3.23;;
6117;SDS011;3089;48.202;11.510;2022-11-15T05:10:57;5.30;;;2.30;;
6117;SDS011;3089;48.202;11.510;2022-11-15T05:13:25;5.80;;;2.70;;
6117;SDS011;3089;48.202;11.510;2022-11-15T05:15:53;4.80;;;2.43;;
6117;SDS011;3089;48.202;11.510;2022-11-15T05:18:21;5.10;;;2.57;;
6117;SDS011;3089;48.202;11.510;2022-11-15T05:20:49;7.47;;;3.10;;
6117;SDS011;3089;48.202;11.510;2022-11-15T05:23:18;7.83;;;3.60;;
6117;SDS011;3089;48.202;11.510;2022-11-15T05:25:46;5.80;;;3.17;;
6117;SDS011;3089;48.202;11.510;2022-11-15T05:28:14;6.80;;;3.37;;
6117;SDS011;3089;48.202;11.510;2022-11-15T05:30:42;6.20;;;2.70;;
6117;SDS011;3089;48.202;11.510;2022-11-15T05:33:10;6.87;;;3.17;;
6117;SDS011;3089;48.202;11.510;2022-11-15T05:35:38;6.17;;;3.30;;
6117;SDS011;3089;48.202;11.510;2022-11-15T05:38:12;6.50;;;3.67;;
6117;SDS011;3089;48.202;11.510;2022-11-15T05:40:41;5.67;;;2.90;;
6117;SDS011;3089;48.202;11.510;2022-11-15T05:43:09;4.60;;;2.23;;
6117;SDS011;3089;48.202;11.510;2022-11-15T05:45:37;7.50;;;4.20;;
6117;SDS011;3089;48.202;11.510;2022-11-15T05:48:06;9.30;;;3.47;;
6117;SDS011;3089;48.202;11.510;2022-11-15T05:50:36;6.83;;;2.90;;
6117;SDS011;3089;48.202;11.510;2022-11-15T05:53:06;8.80;;;3.30;;
6117;SDS011;3089;48.202;11.510;2022-11-15T05:55:34;5.07;;;2.70;;
6117;SDS011;3089;48.202;11.510;2022-11-15T05:58:03;6.13;;;3.07;;
6117;SDS011;3089;48.202;11.510;2022-11-15T06:00:31;9.50;;;3.40;;
6117;SDS011;3089;48.202;11.510;2022-11-15T06:02:59;5.30;;;2.80;;
6117;SDS011;3089;48.202;11.510;2022-11-15T06:05:27;5.93;;;2.70;;
6117;SDS011;3089;48.202;11.510;2022-11-15T06:07:56;5.30;;;2.87;;
6117;SDS011;3089;48.202;11.510;2022-11-15T06:10:24;8.03;;;4.00;;
6117;SDS011;3089;48.202;11.510;2022-11-15T06:12:56;6.80;;;3.17;;
6117;SDS011;3089;48.202;11.510;2022-11-15T06:15:26;4.70;;;2.43;;
6117;SDS011;3089;48.202;11.510;2022-11-15T06:17:55;4.50;;;2.20;;
6117;SDS011;3089;48.202;11.510;2022-11-15T06:20:24;8.10;;;3.80;;
6117;SDS011;3089;48.202;11.510;2022-11-15T06:22:55;5.53;;;2.53;;
6117;SDS011;3089;48.202;11.510;2022-11-15T06:25:24;7.20;;;3.00;;
6117;SDS011;3089;48.202;11.510;2022-11-15T06:27:53;6.28;;;2.72;;
6117;SDS011;3089;48.202;11.510;2022-11-15T06:30:22;7.00;;;3.70;;
6117;SDS011;3089;48.202;11.510;2022-11-15T06:32:53;9.70;;;3.57;;
6117;SDS011;3089;48.202;11.510;2022-11-15T06:35:26;6.33;;;2.90;;
6117;SDS011;3089;48.202;11.510;2022-11-15T06:37:54;9.30;;;3.50;;
6117;SDS011;3089;48.202;11.510;2022-11-15T06:40:22;5.50;;;2.83;;
6117;SDS011;3089;48.202;11.510;2022-11-15T06:42:50;5.43;;;2.70;;
6117;SDS011;3089;48.202;11.510;2022-11-15T06:45:23;4.60;;;2.33;;
6117;SDS011;3089;48.202;11.510;2022-11-15T06:47:53;5.97;;;2.90;;
6117;SDS011;3089;48.202;11.510;2022-11-15T06:50:20;6.30;;;2.97;;
6117;SDS011;3089;48.202;11.510;2022-11-15T06:52:48;6.97;;;2.90;;
6117;SDS011;3089;48.202;11.510;2022-11-15T06:55:16;6.50;;;3.00;;
6117;SDS011;3089;48.202;11.510;2022-11-15T06:57:48;6.30;;;2.97;;
6117;SDS011;3089;48.202;11.510;2022-11-15T07:00:18;8.30;;;3.77;;
6117;SDS011;3089;48.202;11.510;2022-11-15T07:02:47;15.53;;;3.60;;
6117;SDS011;3089;48.202;11.510;2022-11-15T07:05:16;6.67;;;3.00;;
6117;SDS011;3089;48.202;11.510;2022-11-15T07:07:50;6.83;;;3.40;;
6117;SDS011;3089;48.202;11.510;2022-11-15T07:10:18;13.40;;;4.10;;
6117;SDS011;3089;48.202;11.510;2022-11-15T07:12:47;6.47;;;3.50;;
6117;SDS011;3089;48.202;11.510;2022-11-15T07:15:15;14.10;;;3.53;;
6117;SDS011;3089;48.202;11.510;2022-11-15T07:17:43;6.73;;;3.10;;
6117;SDS011;3089;48.202;11.510;2022-11-15T07:20:12;8.13;;;3.33;;
6117;SDS011;3089;48.202;11.510;2022-11-15T07:22:41;8.10;;;3.60;;
6117;SDS011;3089;48.202;11.510;2022-11-15T07:25:11;6.23;;;3.20;;
6117;SDS011;3089;48.202;11.510;2022-11-15T07:27:42;7.37;;;3.70;;
6117;SDS011;3089;48.202;11.510;2022-11-15T07:30:16;8.40;;;3.20;;
6117;SDS011;3089;48.202;11.510;2022-11-15T07:32:44;7.93;;;3.10;;
6117;SDS011;3089;48.202;11.510;2022-11-15T07:35:12;7.90;;;3.50;;
6117;SDS011;3089;48.202;11.510;2022-11-15T07:37:42;11.53;;;3.10;;
6117;SDS011;3089;48.202;11.510;2022-11-15T07:40:10;6.70;;;3.27;;
6117;SDS011;3089;48.202;11.510;2022-11-15T07:42:38;8.03;;;3.40;;
6117;SDS011;3089;48.202;11.510;2022-11-15T07:45:23;8.50;;;4.10;;
6117;SDS011;3089;48.202;11.510;2022-11-15T07:47:52;9.27;;;3.93;;
6117;SDS011;3089;48.202;11.510;2022-11-15T07:50:22;8.33;;;4.30;;
6117;SDS011;3089;48.202;11.510;2022-11-15T07:52:55;7.40;;;3.17;;
6117;SDS011;3089;48.202;11.510;2022-11-15T07:55:23;8.50;;;4.10;;
6117;SDS011;3089;48.202;11.510;2022-11-15T07:57:51;7.90;;;4.07;;
6117;SDS011;3089;48.202;11.510;2022-11-15T08:00:19;6.90;;;3.37;;
6117;SDS011;3089;48.202;11.510;2022-11-15T08:02:47;23.60;;;4.37;;
6117;SDS011;3089;48.202;11.510;2022-11-15T08:05:16;12.03;;;4.20;;
6117;SDS011;3089;48.202;11.510;2022-11-15T08:07:43;10.20;;;3.80;;
6117;SDS011;3089;48.202;11.510;2022-11-15T08:10:13;6.60;;;3.73;;
6117;SDS011;3089;48.202;11.510;2022-11-15T08:12:42;7.30;;;3.70;;
6117;SDS011;3089;48.202;11.510;2022-11-15T08:15:10;8.50;;;4.40;;
6117;SDS011;3089;48.202;11.510;2022-11-15T08:17:38;8.40;;;4.00;;
6117;SDS011;3089;48.202;11.510;2022-11-15T08:20:07;7.83;;;4.13;;
6117;SDS011;3089;48.202;11.510;2022-11-15T08:22:46;7.89;;;3.89;;
6117;SDS011;3089;48.202;11.510;2022-11-15T08:25:16;8.10;;;4.50;;
6117;SDS011;3089;48.202;11.510;2022-11-15T08:27:44;12.70;;;6.77;;
6117;SDS011;3089;48.202;11.510;2022-11-15T08:30:12;10.70;;;6.27;;
6117;SDS011;3089;48.202;11.510;2022-11-15T08:32:42;12.90;;;6.37;;
6117;SDS011;3089;48.202;11.510;2022-11-15T08:35:10;13.10;;;5.70;;
6117;SDS011;3089;48.202;11.510;2022-11-15T08:37:38;8.60;;;4.87;;
6117;SDS011;3089;48.202;11.510;2022-11-15T08:40:06;12.02;;;5.90;;
6117;SDS011;3089;48.202;11.510;2022-11-15T08:42:36;9.27;;;5.20;;
6117;SDS011;3089;48.202;11.510;2022-11-15T08:45:05;13.60;;;5.83;;
6117;SDS011;3089;48.202;11.510;2022-11-15T08:47:34;12.73;;;5.20;;
6117;SDS011;3089;48.202;11.510;2022-11-15T08:50:02;10.00;;;5.30;;
6117;SDS011;3089;48.202;11.510;2022-11-15T08:52:30;10.70;;;4.90;;
6117;SDS011;3089;48.202;11.510;2022-11-15T08:54:57;10.63;;;3.60;;
6117;SDS011;3089;48.202;11.510;2022-11-15T08:57:27;6.93;;;3.57;;
6117;SDS011;3089;48.202;11.510;2022-11-15T08:59:58;6.60;;;3.20;;
6117;SDS011;3089;48.202;11.510;2022-11-15T09:02:26;11.33;;;3.40;;
6117;SDS011;3089;48.202;11.510;2022-11-15T09:04:53;6.53;;;3.00;;
6117;SDS011;3089;48.202;11.510;2022-11-15T09:07:21;5.73;;;3.20;;
6117;SDS011;3089;48.202;11.510;2022-11-15T09:09:51;7.90;;;3.50;;
6117;SDS011;3089;48.202;11.510;2022-11-15T09:12:19;7.03;;;3.30;;
6117;SDS011;3089;48.202;11.510;2022-11-15T09:14:46;5.63;;;3.30;;
6117;SDS011;3089;48.202;11.510;2022-11-15T09:17:16;7.40;;;3.90;;
6117;SDS011;3089;48.202;11.510;2022-11-15T09:19:49;10.50;;;3.30;;
6117;SDS011;3089;48.202;11.510;2022-11-15T09:22:17;9.30;;;3.47;;
6117;SDS011;3089;48.202;11.510;2022-11-15T09:24:45;10.43;;;3.77;;
6117;SDS011;3089;48.202;11.510;2022-11-15T09:27:13;7.00;;;3.53;;
6117;SDS011;3089;48.202;11.510;2022-11-15T09:29:41;7.13;;;3.23;;
6117;SDS011;3089;48.202;11.510;2022-11-15T09:32:09;9.03;;;4.07;;
6117;SDS011;3089;48.202;11.510;2022-11-15T09:34:38;8.83;;;3.40;;
6117;SDS011;3089;48.202;11.510;2022-11-15T09:37:06;9.83;;;3.87;;
6117;SDS011;3089;48.202;11.510;2022-11-15T09:39:34;8.43;;;4.20;;
6117;SDS011;3089;48.202;11.510;2022-11-15T09:42:05;6.87;;;3.50;;
6117;SDS011;3089;48.202;11.510;2022-11-15T09:44:55;6.90;;;2.90;;
6117;SDS011;3089;48.202;11.510;2022-11-15T09:47:36;9.40;;;3.50;;
6117;SDS011;3089;48.202;11.510;2022-11-15T09:50:14;5.90;;;3.07;;
6117;SDS011;3089;48.202;11.510;2022-11-15T09:52:45;6.20;;;2.90;;
6117;SDS011;3089;48.202;11.510;2022-11-15T09:55:14;8.20;;;2.70;;
6117;SDS011;3089;48.202;11.510;2022-11-15T09:57:49;6.83;;;3.10;;
6117;SDS011;3089;48.202;11.510;2022-11-15T10:00:24;5.53;;;2.43;;
6117;SDS011;3089;48.202;11.510;2022-11-15T10:03:16;8.90;;;3.40;;
6117;SDS011;3089;48.202;11.510;2022-11-15T10:05:50;4.73;;;2.27;;
6117;SDS011;3089;48.202;11.510;2022-11-15T10:11:11;5.43;;;2.17;;
6117;SDS011;3089;48.202;11.510;2022-11-15T10:14:08;5.67;;;2.23;;
6117;SDS011;3089;48.202;11.510;2022-11-15T10:16:55;4.70;;;2.20;;
6117;SDS011;3089;48.202;11.510;2022-11-15T10:19:43;5.97;;;2.70;;
6117;SDS011;3089;48.202;11.510;2022-11-15T10:22:28;4.70;;;1.90;;
6117;SDS011;3089;48.202;11.510;2022-11-15T10:25:00;4.90;;;2.17;;
6117;SDS011;3089;48.202;11.510;2022-11-15T10:27:39;9.03;;;1.90;;
6117;SDS011;3089;48.202;11.510;2022-11-15T10:30:10;5.37;;;2.20;;
6117;SDS011;3089;48.202;11.510;2022-11-15T10:32:39;4.73;;;1.83;;
6117;SDS011;3089;48.202;11.510;2022-11-15T10:35:17;3.93;;;2.10;;
6117;SDS011;3089;48.202;11.510;2022-11-15T10:37:59;5.53;;;2.30;;
6117;SDS011;3089;48.202;11.510;2022-11-15T10:40:32;12.13;;;1.90;;
6117;SDS011;3089;48.202;11.510;2022-11-15T10:43:05;3.63;;;1.77;;
6117;SDS011;3089;48.202;11.510;2022-11-15T10:45:40;5.50;;;1.67;;
6117;SDS011;3089;48.202;11.510;2022-11-15T10:50:54;5.20;;;1.87;;
6117;SDS011;3089;48.202;11.510;2022-11-15T10:53:28;4.60;;;1.77;;
6117;SDS011;3089;48.202;11.510;2022-11-15T10:56:03;6.13;;;1.80;;
6117;SDS011;3089;48.202;11.510;2022-11-15T10:58:35;4.80;;;1.73;;
6117;SDS011;3089;48.202;11.510;2022-11-15T11:01:09;3.87;;;1.80;;
6117;SDS011;3089;48.202;11.510;2022-11-15T11:03:39;3.63;;;1.50;;
6117;SDS011;3089;48.202;11.510;2022-11-15T11:06:10;4.80;;;1.53;;
6117;SDS011;3089;48.202;11.510;2022-11-15T11:08:41;5.23;;;1.80;;
6117;SDS011;3089;48.202;11.510;2022-11-15T11:11:21;4.53;;;2.20;;
6117;SDS011;3089;48.202;11.510;2022-11-15T11:13:49;3.60;;;1.40;;
6117;SDS011;3089;48.202;11.510;2022-11-15T11:16:32;7.57;;;2.17;;
6117;SDS011;3089;48.202;11.510;2022-11-15T11:19:13;4.70;;;1.90;;
6117;SDS011;3089;48.202;11.510;2022-11-15T11:21:49;4.40;;;1.70;;
6117;SDS011;3089;48.202;11.510;2022-11-15T11:24:29;8.10;;;2.10;;
6117;SDS011;3089;48.202;11.510;2022-11-15T11:27:07;4.07;;;1.53;;
6117;SDS011;3089;48.202;11.510;2022-11-15T11:29:45;3.97;;;1.70;;
6117;SDS011;3089;48.202;11.510;2022-11-15T11:32:32;4.90;;;1.70;;
6117;SDS011;3089;48.202;11.510;2022-11-15T11:35:09;3.73;;;1.50;;
6117;SDS011;3089;48.202;11.510;2022-11-15T11:37:43;3.23;;;1.40;;
6117;SDS011;3089;48.202;11.510;2022-11-15T11:40:29;3.37;;;1.67;;
6117;SDS011;3089;48.202;11.510;2022-11-15T11:43:04;4.03;;;1.33;;
6117;SDS011;3089;48.202;11.510;2022-11-15T11:45:53;3.40;;;1.40;;
6117;SDS011;3089;48.202;11.510;2022-11-15T11:48:40;6.90;;;2.43;;
6117;SDS011;3089;48.202;11.510;2022-11-15T11:51:11;3.70;;;1.70;;
6117;SDS011;3089;48.202;11.510;2022-11-15T11:53:46;4.93;;;1.57;;
6117;SDS011;3089;48.202;11.510;2022-11-15T11:56:23;3.50;;;1.40;;
6117;SDS011;3089;48.202;11.510;2022-11-15T11:58:55;4.67;;;1.87;;
6117;SDS011;3089;48.202;11.510;2022-11-15T12:01:30;7.50;;;1.87;;
6117;SDS011;3089;48.202;11.510;2022-11-15T12:04:03;6.07;;;1.90;;
6117;SDS011;3089;48.202;11.510;2022-11-15T12:06:36;5.57;;;2.10;;
6117;SDS011;3089;48.202;11.510;2022-11-15T12:09:12;4.43;;;2.30;;
6117;SDS011;3089;48.202;11.510;2022-11-15T12:11:47;5.30;;;2.60;;
6117;SDS011;3089;48.202;11.510;2022-11-15T12:14:25;6.10;;;2.20;;
6117;SDS011;3089;48.202;11.510;2022-11-15T12:16:58;5.30;;;2.40;;
6117;SDS011;3089;48.202;11.510;2022-11-15T12:19:28;4.13;;;2.10;;
6117;SDS011;3089;48.202;11.510;2022-11-15T12:21:57;4.80;;;2.43;;
6117;SDS011;3089;48.202;11.510;2022-11-15T12:24:30;5.67;;;2.50;;
6117;SDS011;3089;48.202;11.510;2022-11-15T12:27:03;7.27;;;2.40;;
6117;SDS011;3089;48.202;11.510;2022-11-15T12:29:39;4.53;;;2.30;;
6117;SDS011;3089;48.202;11.510;2022-11-15T12:32:14;7.13;;;2.03;;
6117;SDS011;3089;48.202;11.510;2022-11-15T12:34:52;7.75;;;2.60;;
6117;SDS011;3089;48.202;11.510;2022-11-15T12:40:24;4.90;;;2.47;;
6117;SDS011;3089;48.202;11.510;2022-11-15T12:43:07;5.10;;;2.50;;
6117;SDS011;3089;48.202;11.510;2022-11-15T12:46:12;4.60;;;2.43;;
6117;SDS011;3089;48.202;11.510;2022-11-15T12:48:51;5.10;;;2.17;;
6117;SDS011;3089;48.202;11.510;2022-11-15T12:51:21;11.27;;;2.03;;
6117;SDS011;3089;48.202;11.510;2022-11-15T12:57:36;5.27;;;2.50;;
6117;SDS011;3089;48.202;11.510;2022-11-15T13:03:13;4.33;;;2.00;;
6117;SDS011;3089;48.202;11.510;2022-11-15T13:05:54;3.93;;;1.80;;
6117;SDS011;3089;48.202;11.510;2022-11-15T13:08:36;4.50;;;2.00;;
6117;SDS011;3089;48.202;11.510;2022-11-15T13:17:21;7.40;;;2.30;;
6117;SDS011;3089;48.202;11.510;2022-11-15T13:22:48;4.80;;;2.37;;
6117;SDS011;3089;48.202;11.510;2022-11-15T13:25:18;4.27;;;2.07;;
6117;SDS011;3089;48.202;11.510;2022-11-15T13:27:50;4.27;;;1.90;;
6117;SDS011;3089;48.202;11.510;2022-11-15T13:30:21;4.57;;;1.80;;
6117;SDS011;3089;48.202;11.510;2022-11-15T13:32:52;4.07;;;2.30;;
6117;SDS011;3089;48.202;11.510;2022-11-15T13:35:21;5.97;;;2.70;;
6117;SDS011;3089;48.202;11.510;2022-11-15T13:37:51;4.77;;;2.23;;
6117;SDS011;3089;48.202;11.510;2022-11-15T13:40:21;5.70;;;2.60;;
6117;SDS011;3089;48.202;11.510;2022-11-15T13:42:53;4.73;;;2.20;;
6117;SDS011;3089;48.202;11.510;2022-11-15T13:45:22;4.57;;;2.60;;
6117;SDS011;3089;48.202;11.510;2022-11-15T13:47:53;5.50;;;2.50;;
6117;SDS011;3089;48.202;11.510;2022-11-15T13:50:24;4.20;;;2.30;;
6117;SDS011;3089;48.202;11.510;2022-11-15T13:52:55;6.00;;;2.50;;
6117;SDS011;3089;48.202;11.510;2022-11-15T13:55:26;6.33;;;2.23;;
6117;SDS011;3089;48.202;11.510;2022-11-15T13:57:56;6.00;;;2.70;;
6117;SDS011;3089;48.202;11.510;2022-11-15T14:00:27;6.53;;;2.77;;
6117;SDS011;3089;48.202;11.510;2022-11-15T14:03:11;6.70;;;2.60;;
6117;SDS011;3089;48.202;11.510;2022-11-15T14:06:02;7.70;;;2.57;;
6117;SDS011;3089;48.202;11.510;2022-11-15T14:08:32;5.30;;;2.70;;
6117;SDS011;3089;48.202;11.510;2022-11-15T14:11:05;5.20;;;2.10;;
6117;SDS011;3089;48.202;11.510;2022-11-15T14:13:41;6.50;;;2.83;;
6117;SDS011;3089;48.202;11.510;2022-11-15T14:16:12;5.00;;;2.73;;
6117;SDS011;3089;48.202;11.510;2022-11-15T14:18:45;6.07;;;2.70;;
6117;SDS011;3089;48.202;11.510;2022-11-15T14:21:14;6.60;;;3.30;;
6117;SDS011;3089;48.202;11.510;2022-11-15T14:23:42;8.20;;;3.17;;
6117;SDS011;3089;48.202;11.510;2022-11-15T14:26:24;4.83;;;2.63;;
6117;SDS011;3089;48.202;11.510;2022-11-15T14:28:54;7.70;;;3.70;;
6117;SDS011;3089;48.202;11.510;2022-11-15T14:31:22;7.47;;;3.60;;
6117;SDS011;3089;48.202;11.510;2022-11-15T14:33:51;6.40;;;3.20;;
6117;SDS011;3089;48.202;11.510;2022-11-15T14:36:20;4.77;;;2.80;;
6117;SDS011;3089;48.202;11.510;2022-11-15T14:38:48;6.90;;;3.60;;
6117;SDS011;3089;48.202;11.510;2022-11-15T14:41:20;7.37;;;3.90;;
6117;SDS011;3089;48.202;11.510;2022-11-15T14:43:52;4.93;;;3.17;;
6117;SDS011;3089;48.202;11.510;2022-11-15T14:46:20;5.43;;;2.80;;
6117;SDS011;3089;48.202;11.510;2022-11-15T14:48:48;5.47;;;3.17;;
6117;SDS011;3089;48.202;11.510;2022-11-15T14:51:17;5.40;;;3.17;;
6117;SDS011;3089;48.202;11.510;2022-11-15T14:53:46;6.00;;;3.13;;
6117;SDS011;3089;48.202;11.510;2022-11-15T14:56:15;7.80;;;2.80;;
6117;SDS011;3089;48.202;11.510;2022-11-15T14:58:45;7.30;;;3.60;;
6117;SDS011;3089;48.202;11.510;2022-11-15T15:01:14;5.50;;;3.00;;
6117;SDS011;3089;48.202;11.510;2022-11-15T15:03:52;6.70;;;3.33;;
6117;SDS011;3089;48.202;11.510;2022-11-15T15:06:23;6.00;;;3.27;;
6117;SDS011;3089;48.202;11.510;2022-11-15T15:08:51;8.00;;;3.23;;
6117;SDS011;3089;48.202;11.510;2022-11-15T15:11:19;6.57;;;3.27;;
6117;SDS011;3089;48.202;11.510;2022-11-15T15:13:49;6.93;;;3.43;;
6117;SDS011;3089;48.202;11.510;2022-11-15T15:16:18;8.30;;;3.87;;
6117;SDS011;3089;48.202;11.510;2022-11-15T15:18:46;9.90;;;3.50;;
6117;SDS011;3089;48.202;11.510;2022-11-15T15:21:17;7.50;;;3.53;;
6117;SDS011;3089;48.202;11.510;2022-11-15T15:23:49;10.60;;;3.80;;
6117;SDS011;3089;48.202;11.510;2022-11-15T15:26:17;7.73;;;4.00;;
6117;SDS011;3089;48.202;11.510;2022-11-15T15:28:45;7.93;;;4.10;;
6117;SDS011;3089;48.202;11.510;2022-11-15T15:31:14;8.30;;;4.03;;
6117;SDS011;3089;48.202;11.510;2022-11-15T15:33:42;8.57;;;3.77;;
6117;SDS011;3089;48.202;11.510;2022-11-15T15:36:10;6.20;;;3.77;;
6117;SDS011;3089;48.202;11.510;2022-11-15T15:38:39;7.20;;;3.30;;
6117;SDS011;3089;48.202;11.510;2022-11-15T15:41:10;9.13;;;4.20;;
6117;SDS011;3089;48.202;11.510;2022-11-15T15:43:38;9.87;;;4.30;;
6117;SDS011;3089;48.202;11.510;2022-11-15T15:46:07;13.20;;;3.47;;
6117;SDS011;3089;48.202;11.510;2022-11-15T15:48:37;10.20;;;4.30;;
6117;SDS011;3089;48.202;11.510;2022-11-15T15:51:05;9.17;;;4.07;;
6117;SDS011;3089;48.202;11.510;2022-11-15T15:53:43;15.87;;;3.93;;
6117;SDS011;3089;48.202;11.510;2022-11-15T15:56:12;7.80;;;3.40;;
6117;SDS011;3089;48.202;11.510;2022-11-15T15:58:40;8.33;;;3.87;;